Allen AAF Airport (BIG)

 

Airport Diagram
Current Weather/Forecast (VFR Conditions)
METAR PABI 100653Z AUTO 26006KT 10SM OVC055 14/10 A2979 RMK AO2 SLP089 T01390100 TSNO
TAF TAF AMD PABI 100615Z 1006/1112 30009KT 9999 VCTS SCT015 BKN025CB QNH2971INS TEMPO 1006/1008 8000 -TSRA BKN020CB BECMG 1007/1008 VRB06KT 9999 NSW BKN015 QNH2969INS BECMG 1020/1022 27012KT 8000 -SHRA BKN010 QNH2974INS BECMG 1104/1105 VRB06KT 9999 NSW BKN020 QNH2976INS TX21/1102Z TN11/1014Z FOR MIL USE ONLY

All Charts

Inbound Traffic (Arrivals)

No inbound traffic.


Outbound Traffic (Departures)

No outbound traffic.